GosportINWX Station Historical Data
 
Daily Summary for February 27, 2021 Units:  English    Metric   Both
Daily Weekly Monthly Yearly Custom
  Current: High: Low: Average:
Temperature: 42.3 °F 42.6 °F 40.4 °F 41.6 °F
Dew Point: 40.9 °F 41 °F 36.8 °F 39.1 °F
Humidity: 95% 95% 87% 91%
Wind Speed: 6.5mph 14.5mph 0mph 5.3mph
Wind Gust: 14.9mph 22.7mph - -
WindWest - - WSW
Pressure: 29.70 in 29.70 in 29.58 in -
Precipitation: 0.17 in      
 
 
Tabular Data for February 27, 2021
Time Temperature Dew Point Pressure Wind Wind Speed Wind Gust Humidity Rainfall Rate (Hourly) solar
00:04 40.4 °F 36.8 °F 29.60 in South 3.1 mph 9.4 mph 87% 0.00 in W/m2
00:09 40.5 °F 36.9 °F 29.60 in South 4.7 mph 9.4 mph 87% 0.00 in W/m2
00:14 40.5 °F 36.9 °F 29.61 in South 4.5 mph 7.8 mph 87% 0.00 in W/m2
00:19 40.6 °F 37 °F 29.61 in SSE 5.2 mph 7.8 mph 87.1% 0.00 in W/m2
00:24 40.6 °F 37.4 °F 29.61 in East 0.5 mph 7.8 mph 88% 0.01 in W/m2
00:29 40.6 °F 37.4 °F 29.61 in East 0.8 mph 5.5 mph 88% 0.02 in W/m2
00:34 40.6 °F 37.4 °F 29.60 in East 0.1 mph 3.9 mph 88% 0.05 in W/m2
00:39 40.6 °F 37.4 °F 29.60 in Calm   3.9 mph 88% 0.05 in W/m2
00:44 40.6 °F 37.4 °F 29.60 in Calm     88% 0.06 in W/m2
00:49 40.6 °F 37.4 °F 29.60 in Calm     88% 0.06 in W/m2
00:54 40.6 °F 37.4 °F 29.58 in Calm     88% 0.06 in W/m2
00:59 40.6 °F 37.3 °F 29.58 in Calm     88% 0.06 in W/m2
01:04 40.5 °F 37.2 °F 29.59 in Calm     88% 0.06 in W/m2
01:09 40.5 °F 37.2 °F 29.58 in Calm     88% 0.07 in W/m2
01:14 40.5 °F 37.2 °F 29.58 in Calm     88% 0.07 in W/m2
01:19 40.5 °F 37.2 °F 29.58 in Calm     88% 0.07 in W/m2
01:24 40.5 °F 37.2 °F 29.58 in Calm     88% 0.07 in W/m2
01:29 40.5 °F 37.2 °F 29.58 in Calm     88% 0.07 in W/m2
01:34 40.5 °F 37.2 °F 29.58 in East 1.4 mph 5.5 mph 88% 0.06 in W/m2
01:39 40.5 °F 37.2 °F 29.60 in East 1.8 mph 5.5 mph 88% 0.05 in W/m2
01:44 40.5 °F 37.2 °F 29.60 in East 2.5 mph 5.5 mph 88% 0.05 in W/m2
01:49 40.5 °F 37.3 °F 29.60 in SE 1.1 mph 5.5 mph 88.3% 0.06 in W/m2
01:54 40.5 °F 37.5 °F 29.60 in Calm   5.5 mph 89% 0.07 in W/m2
01:59 40.5 °F 37.5 °F 29.60 in Calm   3.9 mph 89% 0.07 in W/m2
02:04 40.6 °F 37.7 °F 29.60 in Calm     89% 0.07 in W/m2
02:09 40.7 °F 37.7 °F 29.60 in Calm     89% 0.07 in W/m2
02:14 40.8 °F 37.8 °F 29.60 in Calm     89% 0.07 in W/m2
02:19 40.8 °F 37.8 °F 29.60 in Calm     89% 0.07 in W/m2
02:24 40.6 °F 37.7 °F 29.60 in Calm     89% 0.07 in W/m2
02:29 40.7 °F 37.7 °F 29.60 in Calm     89% 0.06 in W/m2
02:34 40.8 °F 38 °F 29.60 in Calm     89.6% 0.06 in W/m2
02:35 40.8 °F 38.1 °F 29.60 in Calm     90% 0.06 in W/m2
02:44 41.1 °F 38.1 °F 29.59 in South 0.3 mph 1.7 mph 89% 0.06 in W/m2
02:49 41.2 °F 38.2 °F 29.59 in South 3 mph 5.5 mph 89% 0.05 in W/m2
02:54 41.3 °F 38.3 °F 29.59 in South 4.9 mph 7.8 mph 89% 0.02 in W/m2
02:59 41.4 °F 38.6 °F 29.58 in South 4.5 mph 7.8 mph 89.8% 0.02 in W/m2
03:04 41.4 °F 38.6 °F 29.59 in Calm   7.8 mph 90% 0.02 in W/m2
03:09 41.4 °F 38.7 °F 29.59 in SSW 2.4 mph 7.8 mph 90% 0.02 in W/m2
03:14 41.5 °F 38.8 °F 29.59 in SSW 5 mph 5.5 mph 90% 0.02 in W/m2
03:19 41.7 °F 39 °F 29.59 in West 3.9 mph 7.8 mph 90% 0.02 in W/m2
03:24 41.9 °F 39.4 °F 29.60 in West 8.1 mph 11.1 mph 90.6% 0.02 in W/m2
03:29 42.1 °F 39.6 °F 29.60 in West 7.8 mph 13.3 mph 91% 0.02 in W/m2
03:34 42.1 °F 39.6 °F 29.61 in West 7.8 mph 13.3 mph 91% 0.02 in W/m2
03:39 42.3 °F 39.9 °F 29.61 in West 11.7 mph 14.9 mph 91% 0.02 in W/m2
03:44 42.4 °F 40 °F 29.62 in West 12.4 mph 22.7 mph 91% 0.02 in W/m2
03:49 42.4 °F 40.2 °F 29.61 in West 14.5 mph 22.7 mph 91.8% 0.02 in W/m2
03:54 42.4 °F 40.3 °F 29.62 in West 9.8 mph 22.7 mph 92% 0.02 in W/m2
03:59 42.4 °F 40.3 °F 29.62 in West 14.2 mph 22.7 mph 92% 0.01 in W/m2
04:04 42.4 °F 40.2 °F 29.62 in West 11.9 mph 20.5 mph 92% 0.01 in W/m2
04:09 42.3 °F 40.3 °F 29.62 in West 11.2 mph 20.5 mph 92.6% 0.01 in W/m2
04:14 42.3 °F 40.4 °F 29.62 in West 9.4 mph 17.2 mph 93% 0.01 in W/m2
04:19 42.3 °F 40.4 °F 29.62 in West 10 mph 14.9 mph 93% 0.00 in W/m2
04:24 42.3 °F 40.4 °F 29.62 in West 6.4 mph 14.9 mph 93% 0.00 in W/m2
04:29 42.3 °F 40.4 °F 29.62 in West 7.7 mph 13.3 mph 93% 0.00 in W/m2
04:34 42.4 °F 40.6 °F 29.62 in West 9.2 mph 13.3 mph 93% 0.00 in W/m2
04:39 42.4 °F 40.6 °F 29.62 in West 9.3 mph 13.3 mph 93% 0.00 in W/m2
04:44 42.4 °F 40.6 °F 29.63 in West 9.2 mph 13.3 mph 93% 0.00 in W/m2
04:49 42.4 °F 40.6 °F 29.63 in West 9.7 mph 13.3 mph 93% 0.00 in W/m2
04:54 42.4 °F 40.6 °F 29.63 in WNW 8.3 mph 13.3 mph 93% 0.00 in W/m2
04:59 42.4 °F 40.6 °F 29.64 in West 9 mph 13.3 mph 93% 0.00 in W/m2
05:09 42.5 °F 40.8 °F 29.64 in WNW 7.3 mph 11.1 mph 93.4% 0.00 in W/m2
05:14 42.6 °F 41 °F 29.65 in NW 8.9 mph 11.1 mph 94% 0.00 in W/m2
05:19 42.6 °F 41 °F 29.66 in WNW 9.7 mph 11.1 mph 94% 0.00 in W/m2
05:24 42.6 °F 41 °F 29.67 in WNW 8.2 mph 11.1 mph 94% 0.00 in W/m2
05:29 42.6 °F 41 °F 29.67 in West 10.9 mph 14.9 mph 94% 0.00 in W/m2
05:34 42.6 °F 41 °F 29.67 in West 10.9 mph 14.9 mph 94% 0.00 in W/m2
05:39 42.6 °F 41 °F 29.67 in NW 9.6 mph 14.9 mph 94% 0.00 in W/m2
05:44 42.6 °F 41 °F 29.68 in NW 8.3 mph 13.3 mph 94% 0.00 in W/m2
05:49 42.6 °F 41 °F 29.68 in WNW 9 mph 13.3 mph 94% 0.00 in W/m2
05:54 42.6 °F 41 °F 29.69 in WNW 12.7 mph 14.9 mph 94% 0.00 in W/m2
05:59 42.6 °F 41 °F 29.69 in West 9.6 mph 14.9 mph 94% 0.00 in W/m2
06:04 42.5 °F 40.9 °F 29.69 in WNW 9.2 mph 14.9 mph 94% 0.00 in W/m2
06:09 42.4 °F 40.8 °F 29.69 in NW 8.9 mph 13.3 mph 94% 0.00 in W/m2
06:14 42.4 °F 40.8 °F 29.69 in West 9.2 mph 14.9 mph 94% 0.00 in W/m2
06:19 42.4 °F 40.8 °F 29.69 in WNW 8.8 mph 14.9 mph 94% 0.00 in W/m2
06:24 42.4 °F 40.8 °F 29.69 in WNW 7 mph 14.9 mph 94% 0.00 in W/m2
06:29 42.4 °F 41 °F 29.70 in NW 8 mph 14.9 mph 94.9% 0.00 in W/m2
06:39 42.3 °F 40.9 °F 29.70 in West 7.2 mph 13.3 mph 95% 0.00 in W/m2
06:41 42.3 °F 40.9 °F 29.70 in West 9.4 mph 9.4 mph 95% 0.00 in W/m2
06:49 42.3 °F 40.9 °F 29.70 in West 6.5 mph 14.9 mph 95% 0.00 in W/m2
Juneau County Weather
Compliments of Weather Underground - 4 mb